Time;durP1;ratioP1;P1;durP2;ratioP2;P2;SDS_P1;SDS_P2;PMS_P1;PMS_P2;Temp;Humidity;BMP_temperature;BMP_pressure;BME280_temperature;BME280_humidity;BME280_pressure;Samples;Min_cycle;Max_cycle;Signal;HPM_P1;HPM_P2
2023/08/01 00:02:02;;;;;;;1.40;0.60;;;19.40;1.00;;;;;;5072573;28;20497;-60
2023/08/01 00:04:29;;;;;;;1.00;0.60;;;19.30;1.00;;;;;;5074992;28;20492;-60
2023/08/01 00:06:56;;;;;;;0.90;0.60;;;19.30;1.00;;;;;;5075259;28;20430;-60
2023/08/01 00:09:23;;;;;;;1.15;0.70;;;19.20;2.00;;;;;;5074789;28;20869;-59
2023/08/01 00:11:52;;;;;;;1.40;0.60;;;19.10;49.20;;;;;;5074439;28;20419;-59
2023/08/01 00:14:20;;;;;;;1.00;0.50;;;18.90;72.60;;;;;;5073868;28;20423;-60
2023/08/01 00:16:47;;;;;;;0.87;0.50;;;18.90;96.00;;;;;;5074661;28;20558;-59
2023/08/01 00:19:14;;;;;;;1.52;0.60;;;18.70;96.20;;;;;;5074257;28;20428;-60
2023/08/01 00:21:41;;;;;;;1.80;0.68;;;18.70;99.90;;;;;;5073711;28;20846;-59
2023/08/01 00:24:09;;;;;;;1.00;0.50;;;18.60;90.30;;;;;;5074523;28;20517;-59
2023/08/01 00:26:36;;;;;;;1.17;0.50;;;18.70;99.90;;;;;;5073973;28;20431;-60
2023/08/01 00:29:04;;;;;;;1.80;0.60;;;18.80;99.90;;;;;;5074176;28;20431;-60
2023/08/01 00:31:31;;;;;;;1.00;0.60;;;18.70;91.10;;;;;;5074362;28;20456;-60
2023/08/01 00:33:58;;;;;;;1.45;0.70;;;18.70;92.90;;;;;;5074312;28;20423;-60
2023/08/01 00:36:25;;;;;;;1.20;0.70;;;18.70;99.90;;;;;;5074653;28;20421;-60
2023/08/01 00:38:52;;;;;;;1.65;0.60;;;18.70;97.00;;;;;;5074778;28;20839;-60
2023/08/01 00:41:19;;;;;;;1.00;0.60;;;18.70;90.90;;;;;;5074182;28;20450;-60
2023/08/01 00:43:46;;;;;;;0.90;0.60;;;18.70;94.00;;;;;;5073777;28;20427;-59
2023/08/01 00:46:15;;;;;;;1.55;0.60;;;18.70;90.30;;;;;;5074191;28;20430;-59
2023/08/01 00:48:42;;;;;;;0.90;0.60;;;18.70;90.70;;;;;;5074719;28;20423;-60
2023/08/01 00:51:11;;;;;;;0.90;0.60;;;18.60;90.70;;;;;;5074397;28;20939;-60
2023/08/01 00:53:39;;;;;;;1.20;0.60;;;18.70;96.80;;;;;;5073047;28;20434;-60
2023/08/01 00:56:06;;;;;;;1.50;0.60;;;18.70;72.70;;;;;;5074473;28;20423;-60
2023/08/01 00:58:33;;;;;;;1.30;0.70;;;18.80;92.00;;;;;;5074334;28;20481;-59
2023/08/01 01:01:00;;;;;;;0.93;0.50;;;18.80;99.10;;;;;;5072967;28;20431;-60
2023/08/01 01:03:28;;;;;;;1.20;0.63;;;18.90;96.80;;;;;;5073912;28;20730;-60
2023/08/01 01:06:02;;;;;;;1.58;0.70;;;18.90;99.90;;;;;;5074390;28;20493;-60
2023/08/01 01:08:29;;;;;;;1.50;0.70;;;18.90;99.90;;;;;;5074501;28;20718;-60
2023/08/01 01:10:56;;;;;;;0.90;0.55;;;18.90;99.90;;;;;;5073489;28;20420;-60
2023/08/01 01:13:23;;;;;;;1.40;0.65;;;18.90;99.90;;;;;;5073711;28;20430;-60
2023/08/01 01:15:49;;;;;;;0.95;0.50;;;18.90;99.90;;;;;;5073151;28;20419;-60
2023/08/01 01:18:16;;;;;;;1.00;0.60;;;19.00;99.90;;;;;;5071739;28;20473;-60
2023/08/01 01:20:45;;;;;;;1.10;0.60;;;19.00;80.20;;;;;;5070555;28;20428;-60
2023/08/01 01:23:12;;;;;;;1.60;0.60;;;19.00;77.40;;;;;;5071732;28;20431;-60
2023/08/01 01:25:41;;;;;;;1.30;0.60;;;18.90;49.30;;;;;;5075593;28;20439;-59
2023/08/01 01:28:09;;;;;;;1.10;0.50;;;18.80;39.70;;;;;;5076507;28;20419;-59
2023/08/01 01:30:37;;;;;;;1.00;0.50;;;18.90;32.30;;;;;;5076025;28;20716;-59
2023/08/01 01:33:04;;;;;;;1.77;0.60;;;18.80;26.40;;;;;;5076425;28;20423;-60
2023/08/01 01:35:34;;;;;;;1.15;0.50;;;18.80;46.70;;;;;;5077365;28;20426;-59
2023/08/01 01:38:03;;;;;;;1.37;0.60;;;18.80;56.00;;;;;;5077358;28;20514;-59
2023/08/01 01:40:30;;;;;;;1.45;0.70;;;18.80;46.00;;;;;;5077872;28;20474;-59
2023/08/01 01:42:58;;;;;;;1.40;0.60;;;18.80;54.40;;;;;;5077507;28;20431;-58
2023/08/01 01:45:25;;;;;;;1.40;0.60;;;18.70;47.40;;;;;;5077563;28;20435;-59
2023/08/01 01:47:52;;;;;;;1.40;0.60;;;18.60;56.40;;;;;;5076665;28;20816;-59
2023/08/01 01:50:19;;;;;;;1.50;0.70;;;18.60;71.80;;;;;;5077138;28;20434;-59
2023/08/01 01:52:48;;;;;;;1.70;0.60;;;18.60;95.70;;;;;;5076707;28;21038;-59
2023/08/01 01:55:16;;;;;;;1.03;0.70;;;18.60;99.90;;;;;;5077460;28;20427;-60
2023/08/01 01:57:43;;;;;;;1.30;0.60;;;18.80;87.20;;;;;;5076504;28;20423;-60
2023/08/01 02:00:11;;;;;;;1.80;0.70;;;18.80;80.80;;;;;;5077178;28;20856;-60
2023/08/01 02:02:38;;;;;;;2.60;0.60;;;18.80;73.10;;;;;;5076681;28;20489;-60
2023/08/01 02:05:06;;;;;;;1.50;0.70;;;18.70;73.30;;;;;;5077172;28;20469;-60
2023/08/01 02:07:33;;;;;;;2.50;0.70;;;18.70;89.60;;;;;;5077307;28;20473;-60
2023/08/01 02:10:00;;;;;;;1.00;0.70;;;18.60;96.70;;;;;;5076815;28;20426;-59
2023/08/01 02:12:31;;;;;;;1.60;0.63;;;18.50;99.10;;;;;;5077502;28;20473;-60
2023/08/01 02:14:58;;;;;;;1.10;0.60;;;18.60;99.90;;;;;;5076217;28;20823;-60
2023/08/01 02:17:25;;;;;;;1.27;0.60;;;18.60;99.90;;;;;;5075867;28;20492;-60
2023/08/01 02:19:52;;;;;;;1.30;0.70;;;18.60;99.90;;;;;;5075685;28;20463;-60
2023/08/01 02:22:19;;;;;;;1.10;0.60;;;18.70;99.90;;;;;;5076010;28;20435;-60
2023/08/01 02:24:46;;;;;;;1.80;0.70;;;18.60;99.90;;;;;;5075953;28;20427;-60
2023/08/01 02:27:13;;;;;;;1.55;0.70;;;18.70;99.90;;;;;;5076348;28;20423;-60
2023/08/01 02:29:42;;;;;;;1.70;0.60;;;18.80;99.90;;;;;;5075376;28;20462;-60
2023/08/01 02:32:09;;;;;;;1.00;0.60;;;18.80;99.90;;;;;;5076469;28;20430;-60
2023/08/01 02:34:36;;;;;;;1.05;0.60;;;18.80;94.70;;;;;;5075240;28;20477;-60
2023/08/01 02:37:03;;;;;;;1.20;0.60;;;18.80;99.90;;;;;;5075219;28;20415;-60
2023/08/01 02:39:30;;;;;;;0.90;0.60;;;18.90;93.40;;;;;;5076658;28;20766;-60
2023/08/01 02:41:57;;;;;;;1.15;0.70;;;18.90;94.70;;;;;;5076148;28;20444;-60
2023/08/01 02:44:24;;;;;;;1.05;0.60;;;18.90;94.40;;;;;;5075340;28;20501;-60
2023/08/01 02:46:52;;;;;;;1.00;0.60;;;19.10;79.90;;;;;;5074942;28;20423;-60
2023/08/01 02:49:19;;;;;;;1.10;0.70;;;19.10;59.50;;;;;;5074275;28;20430;-60
2023/08/01 02:51:46;;;;;;;1.65;0.60;;;19.10;38.50;;;;;;5074416;28;20472;-60
2023/08/01 02:54:13;;;;;;;1.20;0.60;;;19.00;57.30;;;;;;5074255;28;20458;-60
2023/08/01 02:56:41;;;;;;;1.75;0.70;;;19.00;83.40;;;;;;5074145;28;20861;-60
2023/08/01 02:59:08;;;;;;;1.10;0.73;;;19.00;96.70;;;;;;5075325;28;20589;-60
2023/08/01 03:01:36;;;;;;;1.52;0.60;;;18.80;61.70;;;;;;5075789;28;20436;-59
2023/08/01 03:04:05;;;;;;;2.40;0.70;;;18.80;50.40;;;;;;5075703;28;20507;-59
2023/08/01 03:06:32;;;;;;;1.60;0.68;;;18.80;33.50;;;;;;5074893;28;20427;-60
2023/08/01 03:09:00;;;;;;;1.30;0.60;;;18.70;33.00;;;;;;5073914;28;20435;-62
2023/08/01 03:11:27;;;;;;;1.55;0.80;;;18.70;29.00;;;;;;5075088;28;20424;-62
2023/08/01 03:13:54;;;;;;;1.53;0.60;;;18.70;48.50;;;;;;5075106;28;20508;-61
2023/08/01 03:16:21;;;;;;;1.20;0.60;;;18.70;36.30;;;;;;5074755;28;20488;-61
2023/08/01 03:18:48;;;;;;;1.20;0.60;;;18.70;40.90;;;;;;5074288;28;20416;-61
2023/08/01 03:21:17;;;;;;;0.90;0.60;;;18.80;56.30;;;;;;5073679;28;20704;-62
2023/08/01 03:23:44;;;;;;;1.00;0.60;;;18.80;53.00;;;;;;5072761;28;20510;-61
2023/08/01 03:26:11;;;;;;;1.20;0.60;;;18.90;53.80;;;;;;5072465;28;20716;-62
2023/08/01 03:28:38;;;;;;;1.30;0.60;;;19.10;28.20;;;;;;5073048;28;20492;-61
2023/08/01 03:31:05;;;;;;;1.10;0.60;;;19.10;27.80;;;;;;5072620;28;20465;-62
2023/08/01 03:33:33;;;;;;;1.70;0.60;;;19.00;41.50;;;;;;5073429;28;20414;-61
2023/08/01 03:36:00;;;;;;;1.40;0.50;;;19.00;18.50;;;;;;5073654;28;20778;-61
2023/08/01 03:38:29;;;;;;;1.67;0.50;;;19.10;19.30;;;;;;5074662;28;20777;-62
2023/08/01 03:40:56;;;;;;;1.00;0.60;;;19.10;25.00;;;;;;5074662;28;20428;-61
2023/08/01 03:43:23;;;;;;;1.13;0.60;;;19.10;13.70;;;;;;5074275;28;20685;-61
2023/08/01 03:45:50;;;;;;;1.00;0.50;;;19.10;6.20;;;;;;5074215;28;20412;-61
2023/08/01 03:48:17;;;;;;;1.27;0.57;;;19.20;1.00;;;;;;5072731;28;20500;-61
2023/08/01 03:50:44;;;;;;;1.17;0.60;;;19.20;1.00;;;;;;5073457;28;20916;-62
2023/08/01 03:53:11;;;;;;;1.60;0.60;;;19.20;1.00;;;;;;5072787;28;20419;-61
2023/08/01 03:55:39;;;;;;;0.90;0.60;;;19.30;1.00;;;;;;5073278;28;20843;-61
2023/08/01 03:58:06;;;;;;;1.10;0.60;;;19.40;1.00;;;;;;5073316;28;20415;-61
2023/08/01 04:00:33;;;;;;;1.20;0.50;;;19.30;1.00;;;;;;5074192;28;20633;-62
2023/08/01 04:03:01;;;;;;;1.73;0.50;;;19.40;1.00;;;;;;5073839;28;20709;-61
2023/08/01 04:05:28;;;;;;;0.90;0.60;;;19.40;1.00;;;;;;5073110;28;20424;-61
2023/08/01 04:07:55;;;;;;;1.10;0.60;;;19.40;1.00;;;;;;5073859;28;20423;-62
2023/08/01 04:10:22;;;;;;;1.90;0.60;;;19.40;1.00;;;;;;5073057;28;20474;-62
2023/08/01 04:12:51;;;;;;;1.13;0.60;;;19.30;1.00;;;;;;5072822;28;20736;-61
2023/08/01 04:15:18;;;;;;;1.10;0.60;;;19.40;1.00;;;;;;5072556;28;20423;-60
2023/08/01 04:17:45;;;;;;;1.10;0.50;;;19.30;1.00;;;;;;5073229;28;20423;-60
2023/08/01 04:20:13;;;;;;;1.30;0.50;;;19.20;1.00;;;;;;5073959;28;20851;-62
2023/08/01 04:22:40;;;;;;;1.40;0.60;;;19.20;1.00;;;;;;5073763;28;20439;-62
2023/08/01 04:25:07;;;;;;;0.80;0.50;;;19.10;1.00;;;;;;5074104;28;20422;-61
2023/08/01 04:27:34;;;;;;;1.17;0.50;;;19.20;1.00;;;;;;5073624;28;20422;-62
2023/08/01 04:30:04;;;;;;;1.48;0.60;;;19.30;1.00;;;;;;5072929;28;20773;-63
2023/08/01 04:32:31;;;;;;;1.20;0.60;;;19.30;1.00;;;;;;5072485;28;20481;-61
2023/08/01 04:34:58;;;;;;;0.90;0.55;;;19.20;1.00;;;;;;5072648;28;20430;-60
2023/08/01 04:37:26;;;;;;;2.10;0.60;;;19.20;1.00;;;;;;5070561;28;20485;-61
2023/08/01 04:39:52;;;;;;;1.02;0.63;;;19.10;1.00;;;;;;5068574;28;20415;-59
2023/08/01 04:42:19;;;;;;;1.35;0.60;;;19.10;1.00;;;;;;5071689;28;20438;-61
2023/08/01 04:44:46;;;;;;;1.20;0.60;;;19.10;1.00;;;;;;5072558;28;20424;-60
2023/08/01 04:47:15;;;;;;;1.05;0.60;;;19.20;1.00;;;;;;5072006;28;20899;-60
2023/08/01 04:49:43;;;;;;;1.00;0.60;;;19.10;1.00;;;;;;5071759;28;20548;-62
2023/08/01 04:52:09;;;;;;;1.80;0.60;;;19.20;1.00;;;;;;5072438;28;20559;-60
2023/08/01 04:54:36;;;;;;;1.00;0.60;;;19.30;1.00;;;;;;5072461;28;20466;-62
2023/08/01 04:57:04;;;;;;;0.90;0.53;;;19.20;1.00;;;;;;5071895;28;20422;-61
2023/08/01 04:59:31;;;;;;;0.90;0.50;;;19.30;1.00;;;;;;5075549;28;20518;-61
2023/08/01 05:01:58;;;;;;;0.97;0.50;;;19.30;1.00;;;;;;5077063;28;20442;-61
2023/08/01 05:04:27;;;;;;;1.30;0.50;;;19.40;1.00;;;;;;5076145;28;20434;-61
2023/08/01 05:06:53;;;;;;;1.00;0.50;;;19.40;1.00;;;;;;5075882;28;20416;-61
2023/08/01 05:09:20;;;;;;;1.02;0.60;;;19.40;1.00;;;;;;5074628;28;20419;-62
2023/08/01 05:11:47;;;;;;;2.20;0.60;;;19.50;1.00;;;;;;5076185;28;20431;-62
2023/08/01 05:14:14;;;;;;;2.10;0.60;;;19.40;1.00;;;;;;5074830;28;20428;-62
2023/08/01 05:16:41;;;;;;;0.90;0.57;;;19.40;1.00;;;;;;5075428;28;20905;-61
2023/08/01 05:19:08;;;;;;;1.10;0.60;;;19.40;1.00;;;;;;5075302;28;20435;-61
2023/08/01 05:21:37;;;;;;;1.30;0.60;;;19.50;1.00;;;;;;5074931;28;20419;-62
2023/08/01 05:24:04;;;;;;;0.70;0.50;;;19.60;1.00;;;;;;5075953;28;20477;-62
2023/08/01 05:26:31;;;;;;;2.10;0.60;;;19.70;1.00;;;;;;5074602;28;20491;-62
2023/08/01 05:28:58;;;;;;;1.40;0.60;;;19.90;1.00;;;;;;5074255;28;20488;-61
2023/08/01 05:31:25;;;;;;;1.20;0.60;;;19.80;1.00;;;;;;5076857;28;20419;-62
2023/08/01 05:33:52;;;;;;;1.80;0.63;;;19.80;1.00;;;;;;5076251;28;20415;-61
2023/08/01 05:36:19;;;;;;;1.10;0.50;;;19.90;1.00;;;;;;5076028;28;20411;-61
2023/08/01 05:38:47;;;;;;;1.10;0.50;;;19.90;1.00;;;;;;5073833;28;20431;-61
2023/08/01 05:41:14;;;;;;;2.00;0.80;;;19.90;1.00;;;;;;5073948;28;20500;-61
2023/08/01 05:43:41;;;;;;;1.10;0.60;;;19.90;1.00;;;;;;5074531;28;20449;-62
2023/08/01 05:46:08;;;;;;;1.30;0.70;;;19.90;1.00;;;;;;5072756;28;20439;-61
2023/08/01 05:48:37;;;;;;;1.20;0.60;;;19.90;1.00;;;;;;5073795;28;20419;-62
2023/08/01 05:51:04;;;;;;;4.10;0.60;;;19.80;1.00;;;;;;5074607;28;21080;-62
2023/08/01 05:53:31;;;;;;;3.30;0.70;;;19.80;1.00;;;;;;5073399;28;20489;-62
2023/08/01 05:55:59;;;;;;;1.80;0.70;;;19.80;1.00;;;;;;5072135;28;20891;-61
2023/08/01 05:58:26;;;;;;;1.10;0.70;;;19.80;1.00;;;;;;5072950;28;20743;-62
2023/08/01 06:00:53;;;;;;;3.08;0.60;;;19.90;99.90;;;;;;5073977;28;20420;-61
2023/08/01 06:03:20;;;;;;;1.20;0.70;;;19.90;99.90;;;;;;5074288;28;20435;-62
2023/08/01 06:05:47;;;;;;;1.10;0.68;;;19.80;99.90;;;;;;5073023;28;20423;-61
2023/08/01 06:08:15;;;;;;;1.20;0.70;;;20.00;99.90;;;;;;5063760;28;20550;-61
2023/08/01 06:10:43;;;;;;;1.30;0.60;;;20.00;99.90;;;;;;5055046;28;20437;-62
2023/08/01 06:13:11;;;;;;;1.08;0.60;;;20.00;99.90;;;;;;5063107;28;20425;-62
2023/08/01 06:15:38;;;;;;;1.95;0.70;;;20.00;1.00;;;;;;5052825;28;20772;-62
2023/08/01 06:18:05;;;;;;;1.40;0.65;;;20.00;99.90;;;;;;5052630;28;20795;-61
2023/08/01 06:20:32;;;;;;;0.98;0.60;;;20.00;1.00;;;;;;5051014;28;20424;-63
2023/08/01 06:23:00;;;;;;;1.20;0.60;;;20.00;99.90;;;;;;5053640;28;20502;-61
2023/08/01 06:25:27;;;;;;;1.40;0.60;;;20.00;1.00;;;;;;5064031;28;20423;-62
2023/08/01 06:27:54;;;;;;;1.25;0.52;;;20.10;1.00;;;;;;5073554;28;20416;-60
2023/08/01 06:30:22;;;;;;;2.20;0.70;;;19.80;99.90;;;;;;5072236;28;20473;-60
2023/08/01 06:32:49;;;;;;;1.00;0.60;;;19.70;1.00;;;;;;5069519;28;20755;-59
2023/08/01 06:35:16;;;;;;;1.10;0.60;;;19.50;1.00;;;;;;5068950;28;20431;-61
2023/08/01 06:37:43;;;;;;;1.10;0.63;;;19.40;1.00;;;;;;5069594;28;20424;-61
2023/08/01 06:40:11;;;;;;;1.40;1.02;;;19.40;1.00;;;;;;5068022;28;20430;-61
2023/08/01 06:42:38;;;;;;;1.30;0.80;;;19.20;1.00;;;;;;5068265;28;20431;-60
2023/08/01 06:45:07;;;;;;;1.53;0.80;;;19.10;1.00;;;;;;5068474;28;20431;-60
2023/08/01 06:47:36;;;;;;;1.73;0.70;;;19.00;1.00;;;;;;5071317;28;20500;-60
2023/08/01 06:50:02;;;;;;;2.03;0.70;;;19.00;1.00;;;;;;5070571;28;21021;-58
2023/08/01 06:52:29;;;;;;;1.30;0.70;;;19.00;1.00;;;;;;5070464;28;20488;-57
2023/08/01 06:54:56;;;;;;;2.20;0.80;;;19.10;1.00;;;;;;5070062;28;20831;-58
2023/08/01 06:57:23;;;;;;;2.10;1.00;;;19.00;1.00;;;;;;5070666;28;20831;-58
2023/08/01 06:59:50;;;;;;;2.10;1.00;;;19.00;1.00;;;;;;5066981;28;20501;-59
2023/08/01 07:02:17;;;;;;;1.37;0.90;;;18.90;5.80;;;;;;5054508;28;20436;-58
2023/08/01 07:04:46;;;;;;;1.90;0.90;;;18.70;1.00;;;;;;5053314;28;20484;-58
2023/08/01 07:07:13;;;;;;;2.70;0.90;;;18.70;1.40;;;;;;5071844;28;20420;-58
2023/08/01 07:09:40;;;;;;;2.30;0.90;;;18.60;19.90;;;;;;5071184;28;20416;-59
2023/08/01 07:12:07;;;;;;;2.15;0.90;;;18.60;51.80;;;;;;5070632;28;20416;-59
2023/08/01 07:14:34;;;;;;;1.90;0.90;;;18.50;14.20;;;;;;5070890;28;20427;-59
2023/08/01 07:17:01;;;;;;;2.40;1.00;;;18.40;30.90;;;;;;5069852;28;20427;-59
2023/08/01 07:19:28;;;;;;;1.80;0.90;;;18.40;1.00;;;;;;5068984;28;20940;-60
2023/08/01 07:21:57;;;;;;;1.60;0.90;;;18.60;1.00;;;;;;5070279;28;20811;-59
2023/08/01 07:24:24;;;;;;;2.72;0.90;;;18.80;1.00;;;;;;5071884;28;20435;-59
2023/08/01 07:26:51;;;;;;;2.13;1.00;;;18.70;1.00;;;;;;5072022;28;20428;-58
2023/08/01 07:29:18;;;;;;;2.60;1.00;;;18.60;2.00;;;;;;5070517;28;20908;-56
2023/08/01 07:31:45;;;;;;;2.30;0.90;;;18.70;24.20;;;;;;5071747;28;20423;-59
2023/08/01 07:34:12;;;;;;;1.35;0.70;;;18.70;1.00;;;;;;5072959;28;20423;-58
2023/08/01 07:36:39;;;;;;;1.80;0.90;;;18.80;21.30;;;;;;5071978;28;20420;-58
2023/08/01 07:39:08;;;;;;;2.20;0.90;;;18.60;9.20;;;;;;5071723;28;20438;-58
2023/08/01 07:41:35;;;;;;;3.33;0.90;;;18.40;84.70;;;;;;5072168;28;20424;-57
2023/08/01 07:44:03;;;;;;;2.00;0.80;;;18.40;99.90;;;;;;5070615;28;20504;-57
2023/08/01 07:46:30;;;;;;;2.50;0.90;;;18.40;99.90;;;;;;5069113;28;20508;-57
2023/08/01 07:48:57;;;;;;;1.55;0.77;;;18.00;99.90;;;;;;5070266;28;20415;-55
2023/08/01 07:51:24;;;;;;;1.75;0.80;;;18.00;99.90;;;;;;5070534;28;20423;-56
2023/08/01 07:53:53;;;;;;;1.50;0.90;;;18.10;99.90;;;;;;5071435;28;20423;-57
2023/08/01 07:56:21;;;;;;;2.10;0.80;;;18.00;99.90;;;;;;5069178;28;20727;-58
2023/08/01 07:58:48;;;;;;;1.60;0.70;;;17.90;99.90;;;;;;5068269;28;20431;-56
2023/08/01 08:01:15;;;;;;;1.55;0.77;;;17.80;99.90;;;;;;5068913;28;20423;-58
2023/08/01 08:03:42;;;;;;;1.90;0.75;;;17.70;99.90;;;;;;5071070;28;20759;-57
2023/08/01 08:06:09;;;;;;;1.27;0.70;;;17.60;99.90;;;;;;5071645;28;20446;-57
2023/08/01 08:08:36;;;;;;;1.10;0.60;;;17.70;99.90;;;;;;5070702;28;20907;-58
2023/08/01 08:11:04;;;;;;;2.05;0.70;;;17.90;99.90;;;;;;5067225;28;20735;-59
2023/08/01 08:13:32;;;;;;;1.92;0.60;;;17.80;99.90;;;;;;5066505;28;20423;-59
2023/08/01 08:15:59;;;;;;;1.02;0.57;;;17.80;99.90;;;;;;5066644;28;20900;-58
2023/08/01 08:18:27;;;;;;;1.50;0.50;;;17.80;99.90;;;;;;5069554;28;20446;-58
2023/08/01 08:20:54;;;;;;;1.17;0.60;;;17.90;99.90;;;;;;5070799;28;20474;-58
2023/08/01 08:23:21;;;;;;;1.00;0.45;;;17.80;99.90;;;;;;5070901;28;20431;-58
2023/08/01 08:25:48;;;;;;;0.90;0.50;;;17.80;99.90;;;;;;5071020;28;20415;-60
2023/08/01 08:28:15;;;;;;;0.70;0.40;;;17.90;99.90;;;;;;5070877;28;20473;-58
2023/08/01 08:30:45;;;;;;;0.80;0.50;;;18.00;99.90;;;;;;5071945;28;20528;-57
2023/08/01 08:33:20;;;;;;;0.82;0.50;;;18.00;99.90;;;;;;5072092;28;20434;-59
2023/08/01 08:35:47;;;;;;;1.20;0.40;;;18.00;99.90;;;;;;5069529;28;20466;-60
2023/08/01 08:38:14;;;;;;;0.80;0.50;;;17.80;99.90;;;;;;5053336;28;20441;-60
2023/08/01 08:40:45;;;;;;;1.13;0.50;;;17.90;99.90;;;;;;5049983;28;20568;-58
2023/08/01 08:43:12;;;;;;;1.20;0.50;;;18.10;99.90;;;;;;5061085;28;21065;-59
2023/08/01 08:45:45;;;;;;;0.73;0.40;;;18.30;99.90;;;;;;5069304;28;20423;-59
2023/08/01 08:48:16;;;;;;;0.95;0.50;;;18.30;99.90;;;;;;5068867;28;20434;-59
2023/08/01 08:50:43;;;;;;;1.20;0.50;;;18.50;99.90;;;;;;5067215;28;20431;-59
2023/08/01 08:53:12;;;;;;;1.50;0.50;;;18.80;99.90;;;;;;5067679;28;20427;-60
2023/08/01 08:55:40;;;;;;;1.20;0.50;;;18.90;99.90;;;;;;5068322;28;20910;-60
2023/08/01 08:58:08;;;;;;;1.20;0.65;;;18.80;99.90;;;;;;5066616;28;20501;-60
2023/08/01 09:00:37;;;;;;;0.80;0.47;;;18.70;99.90;;;;;;5066242;28;20422;-60
2023/08/01 09:03:05;;;;;;;0.90;0.47;;;19.10;99.90;;;;;;5065133;28;20419;-59
2023/08/01 09:05:36;;;;;;;0.95;0.60;;;19.20;99.90;;;;;;5067456;28;20678;-60
2023/08/01 09:08:08;;;;;;;0.80;0.40;;;19.30;99.90;;;;;;5067480;28;20422;-60
2023/08/01 09:10:35;;;;;;;0.82;0.40;;;18.90;99.90;;;;;;5069336;28;20888;-59
2023/08/01 09:13:02;;;;;;;1.05;0.60;;;19.10;99.90;;;;;;5068839;28;20473;-56
2023/08/01 09:15:30;;;;;;;0.70;0.40;;;19.10;99.90;;;;;;5068387;28;20491;-54
2023/08/01 09:18:00;;;;;;;0.70;0.40;;;19.00;99.90;;;;;;5067695;28;20782;-58
2023/08/01 09:20:29;;;;;;;0.80;0.50;;;18.90;99.90;;;;;;5069391;28;20423;-57
2023/08/01 09:22:56;;;;;;;0.70;0.40;;;18.80;99.90;;;;;;5069181;28;20705;-58
2023/08/01 09:25:33;;;;;;;0.85;0.40;;;18.70;99.90;;;;;;5069459;28;20439;-58
2023/08/01 09:28:00;;;;;;;0.70;0.35;;;18.70;99.90;;;;;;5068645;28;20426;-58
2023/08/01 09:30:27;;;;;;;1.00;0.40;;;18.80;99.90;;;;;;5069523;28;20419;-58
2023/08/01 09:32:55;;;;;;;0.60;0.40;;;19.00;99.90;;;;;;5069243;28;20522;-58
2023/08/01 09:35:22;;;;;;;1.30;0.60;;;19.00;99.90;;;;;;5071159;28;20419;-59
2023/08/01 09:37:50;;;;;;;0.70;0.40;;;19.10;99.90;;;;;;5070414;28;20981;-59
2023/08/01 09:40:17;;;;;;;0.90;0.30;;;19.40;99.90;;;;;;5068022;28;20415;-59
2023/08/01 09:42:46;;;;;;;0.80;0.40;;;19.70;99.90;;;;;;5069912;28;20471;-59
2023/08/01 09:45:14;;;;;;;0.80;0.30;;;19.90;99.90;;;;;;5068224;28;20473;-59
2023/08/01 09:47:42;;;;;;;0.70;0.30;;;20.10;99.90;;;;;;5066988;28;20462;-58
2023/08/01 09:50:10;;;;;;;0.70;0.40;;;20.10;99.90;;;;;;5071897;28;20489;-57
2023/08/01 09:52:38;;;;;;;0.50;0.30;;;20.20;96.20;;;;;;5071410;28;20530;-58
2023/08/01 09:55:07;;;;;;;0.57;0.30;;;20.10;99.90;;;;;;5070443;28;20411;-58
2023/08/01 09:57:38;;;;;;;0.60;0.30;;;20.20;99.90;;;;;;5070284;28;20750;-58
2023/08/01 10:00:06;;;;;;;0.60;0.30;;;20.20;95.70;;;;;;5071977;28;20497;-58
2023/08/01 10:02:34;;;;;;;0.95;0.30;;;20.00;99.90;;;;;;5073095;28;20944;-59
2023/08/01 10:05:01;;;;;;;0.40;0.20;;;20.10;99.90;;;;;;5071388;28;20439;-58
2023/08/01 10:07:31;;;;;;;0.50;0.20;;;20.30;92.00;;;;;;5068413;28;20427;-58
2023/08/01 10:10:00;;;;;;;0.50;0.30;;;20.40;85.10;;;;;;5065804;28;20431;-60
2023/08/01 10:12:28;;;;;;;0.40;0.13;;;20.60;64.20;;;;;;5069790;28;20423;-58
2023/08/01 10:14:56;;;;;;;0.57;0.20;;;20.60;52.60;;;;;;5068387;28;20506;-59
2023/08/01 10:17:25;;;;;;;0.40;0.20;;;20.30;29.20;;;;;;5066344;28;20433;-59
2023/08/01 10:19:55;;;;;;;0.40;0.20;;;20.30;80.80;;;;;;5069196;28;20447;-59
2023/08/01 10:22:23;;;;;;;0.50;0.20;;;20.50;54.80;;;;;;5068776;28;20419;-59
2023/08/01 10:24:50;;;;;;;0.40;0.20;;;20.60;50.60;;;;;;5065939;28;20438;-60
2023/08/01 10:27:22;;;;;;;0.30;0.20;;;20.70;21.10;;;;;;5066455;28;20435;-57
2023/08/01 10:29:59;;;;;;;0.40;0.10;;;20.70;20.60;;;;;;5069721;28;21010;-59
2023/08/01 10:32:33;;;;;;;0.30;0.10;;;20.40;20.60;;;;;;5069158;28;20439;-59
2023/08/01 10:35:00;;;;;;;0.50;0.20;;;20.20;59.70;;;;;;5068906;28;20798;-59
2023/08/01 10:37:28;;;;;;;0.70;0.13;;;20.10;70.60;;;;;;5068020;28;20443;-59
2023/08/01 10:39:58;;;;;;;0.60;0.20;;;20.20;92.40;;;;;;5050438;28;20422;-59
2023/08/01 10:42:25;;;;;;;0.30;0.10;;;20.50;98.30;;;;;;5072931;28;20422;-62
2023/08/01 10:44:52;;;;;;;0.40;0.10;;;20.80;68.60;;;;;;5059945;28;20894;-63
2023/08/01 10:47:28;;;;;;;0.40;0.10;;;21.30;2.30;;;;;;5043786;28;20433;-61
2023/08/01 10:49:55;;;;;;;0.40;0.10;;;21.60;1.00;;;;;;5047489;28;20485;-63
2023/08/01 10:52:27;;;;;;;0.40;0.10;;;22.30;1.00;;;;;;5044132;28;20657;-62
2023/08/01 10:54:59;;;;;;;0.60;0.10;;;22.60;1.00;;;;;;5043127;28;20544;-58
2023/08/01 10:57:27;;;;;;;0.98;0.20;;;22.80;1.00;;;;;;5023284;28;20684;-58
2023/08/01 10:59:56;;;;;;;1.00;0.20;;;22.80;99.90;;;;;;5035172;28;20440;-58
2023/08/01 11:02:25;;;;;;;0.40;0.17;;;23.00;1.00;;;;;;5045500;28;20437;-57
2023/08/01 11:05:01;;;;;;;0.40;0.10;;;23.30;36.60;;;;;;5047176;28;21202;-59
2023/08/01 11:07:28;;;;;;;0.30;0.10;;;23.40;1.00;;;;;;5046697;28;20566;-59
2023/08/01 11:10:06;;;;;;;0.30;0.20;;;23.40;1.00;;;;;;5052123;28;20417;-59
2023/08/01 11:12:36;;;;;;;0.30;0.10;;;23.00;1.00;;;;;;5052869;28;20420;-59
2023/08/01 11:15:05;;;;;;;0.70;0.20;;;23.00;1.00;;;;;;5053579;28;20425;-57
2023/08/01 11:17:33;;;;;;;0.50;0.20;;;22.70;92.50;;;;;;5050021;28;20506;-57
2023/08/01 11:20:07;;;;;;;0.60;0.20;;;22.70;99.90;;;;;;5051662;28;20424;-59
2023/08/01 11:22:34;;;;;;;0.30;0.13;;;22.80;99.90;;;;;;5050493;28;20462;-59
2023/08/01 11:25:01;;;;;;;0.50;0.20;;;22.90;1.00;;;;;;5044906;28;20644;-59
2023/08/01 11:27:28;;;;;;;0.40;0.20;;;22.90;99.90;;;;;;5051930;28;20425;-59
2023/08/01 11:29:56;;;;;;;0.60;0.20;;;23.50;99.90;;;;;;5050949;28;20417;-58
2023/08/01 11:32:33;;;;;;;1.00;0.20;;;23.60;99.90;;;;;;5051042;28;20502;-57
2023/08/01 11:35:00;;;;;;;0.40;0.20;;;24.00;87.10;;;;;;5050867;28;20732;-66
2023/08/01 11:37:28;;;;;;;0.50;0.20;;;24.10;33.50;;;;;;5051397;28;20429;-66
2023/08/01 11:39:56;;;;;;;0.40;0.20;;;23.80;1.00;;;;;;5048793;28;21007;-64
2023/08/01 11:42:23;;;;;;;0.40;0.20;;;23.90;1.00;;;;;;5048435;28;20464;-64
2023/08/01 11:44:50;;;;;;;0.50;0.20;;;24.00;1.00;;;;;;5059021;28;20547;-63
2023/08/01 11:47:18;;;;;;;1.40;0.20;;;24.30;1.00;;;;;;5068653;28;20427;-65
2023/08/01 11:49:50;;;;;;;0.40;0.20;;;24.20;1.00;;;;;;5069891;28;20427;-65
2023/08/01 11:52:24;;;;;;;0.52;0.20;;;24.50;1.00;;;;;;5069005;28;20459;-64
2023/08/01 11:54:54;;;;;;;0.50;0.20;;;24.60;1.00;;;;;;5069759;28;20459;-64
2023/08/01 11:57:21;;;;;;;1.10;0.20;;;24.70;1.00;;;;;;5068956;28;20460;-65
2023/08/01 11:59:49;;;;;;;0.70;0.30;;;24.30;1.00;;;;;;5061487;28;20419;-65
2023/08/01 12:02:23;;;;;;;0.57;0.30;;;24.20;1.00;;;;;;5069104;28;20525;-65
2023/08/01 12:04:51;;;;;;;0.68;0.20;;;24.40;1.00;;;;;;5069921;28;20439;-66
2023/08/01 12:07:18;;;;;;;0.50;0.20;;;25.00;1.00;;;;;;5068584;28;20434;-65
2023/08/01 12:09:45;;;;;;;0.40;0.20;;;25.00;1.00;;;;;;5068481;28;20626;-64
2023/08/01 12:12:15;;;;;;;0.40;0.20;;;24.30;1.00;;;;;;5062835;28;20420;-62
2023/08/01 12:14:42;;;;;;;0.60;0.30;;;24.20;1.00;;;;;;5068721;28;20454;-61
2023/08/01 12:17:09;;;;;;;0.68;0.30;;;24.20;1.00;;;;;;5066902;28;20435;-64
2023/08/01 12:19:36;;;;;;;0.60;0.20;;;24.70;1.00;;;;;;5066006;28;20431;-65
2023/08/01 12:22:03;;;;;;;0.35;0.20;;;25.10;1.00;;;;;;5067084;28;20408;-66
2023/08/01 12:24:30;;;;;;;0.60;0.30;;;25.50;1.00;;;;;;5067404;28;20423;-65
2023/08/01 12:26:58;;;;;;;0.70;0.30;;;25.30;1.00;;;;;;5067583;28;20483;-65
2023/08/01 12:29:27;;;;;;;0.50;0.20;;;24.90;1.00;;;;;;5067011;28;20438;-65
2023/08/01 12:31:54;;;;;;;0.40;0.20;;;24.60;1.00;;;;;;5067207;28;20492;-67
2023/08/01 12:34:20;;;;;;;0.70;0.30;;;24.50;1.00;;;;;;5066887;28;20427;-66
2023/08/01 12:36:47;;;;;;;0.50;0.20;;;24.80;1.00;;;;;;5065605;28;21016;-63
2023/08/01 12:39:14;;;;;;;0.45;0.20;;;25.10;1.00;;;;;;5067266;28;20415;-66
2023/08/01 12:41:41;;;;;;;1.48;0.30;;;24.70;1.00;;;;;;5067937;28;20431;-65
2023/08/01 12:44:08;;;;;;;0.60;0.30;;;24.80;1.00;;;;;;5068524;28;20435;-66
2023/08/01 12:46:37;;;;;;;0.50;0.20;;;24.90;1.00;;;;;;5069433;28;20427;-67
2023/08/01 12:49:04;;;;;;;0.40;0.20;;;25.30;1.00;;;;;;5068796;28;20829;-66
2023/08/01 12:51:31;;;;;;;0.50;0.20;;;25.40;1.00;;;;;;5069319;28;20473;-65
2023/08/01 12:53:57;;;;;;;0.80;0.20;;;25.70;1.00;;;;;;5068321;28;20767;-67